Chautauqua, Illinois
Current Conditions -  °F | °C
As of 2:28 AM on Monday 24 Nov 2014 (Local Time) from KSET Reporting Station
Moderate Rain Moderate Rain  
Wind Chill: 35°   Ceiling: 7000
Heat Index: 44°   Visibility: 6mi
Dew Point: 41°   Wind: 24mph
Humidity: 89%   Direction: 310°NW
Pressure: 29.25"   Gusts: 39mph
Location:  38.9749°N, 90.3301°W
Report Text: KSET 240828Z AUTO 31021G34KT 6SM RA BR FEW009 SCT017 OVC070 07/05 A2925 RMK AO2 PK WND 31035/0809 P0003 T00670050
Loading
Personal Weather Stations






























Interactive Weather Map New forecast layout! Learn more

10-Day Weather Forecast

Advertisements
Track Severe Weather on mobile